首页
METAR-TAF:

METAR-TAF

机场 :

石油平台

A12-cpp, 荷兰

纬度: 55-23-57N, 经度: 3-48-37E, 海拔: 33米

当前天气观测

该预报发布于34分钟前的07:25 UTC
风速6节,风向
温度 7°C
湿度 100%
气压 1034 hPa
能见度10公里或以上

METAR: EHAK 220725Z AUTO 35006KT 9999 FEW000/// SCT012/// BKN016/// 07/07 Q1034

时间: 08:59 (07:59 UTC)


TAF: 丢失

超过4000个机场的气象观测和天气预报(METAR&TAF报告)。

可查询的气象台以黄色和红色小点在地图上表示。

将鼠标移到小点上方,可查看气象台名称。

然后点击查看天气观测和预报。

如需切换地图:点击带黑十字的绿色按钮放大地图;点击带横线的绿色按钮缩小地图;或者点击绿色箭头查看邻近地区的地图。


METAR-TAF: